Time;durP1;ratioP1;P1;durP2;ratioP2;P2;SDS_P1;SDS_P2;PMS_P1;PMS_P2;Temp;Humidity;BMP_temperature;BMP_pressure;BME280_temperature;BME280_humidity;BME280_pressure;Samples;Min_cycle;Max_cycle;Signal;HPM_P1;HPM_P2
2021/04/08 10:54:31;;;;;;;24.88;4.55;;;19.90;35.30;;;;;;4256851;27;20589;-64
2021/04/08 10:56:38;;;;;;;26.52;4.13;;;19.70;34.90;;;;;;4227688;27;20055;-67
2021/04/08 10:58:43;;;;;;;18.42;6.13;;;20.20;35.90;;;;;;4247979;27;20322;-73
2021/04/08 11:00:47;;;;;;;13.20;3.53;;;19.40;33.50;;;;;;4247386;27;20051;-72
2021/04/08 11:02:57;;;;;;;11.50;3.50;;;19.70;35.40;;;;;;4228351;27;20111;-66
2021/04/08 11:05:07;;;;;;;13.93;4.47;;;20.40;33.60;;;;;;4229275;27;20115;-67
2021/04/08 11:07:15;;;;;;;19.15;6.60;;;19.90;32.10;;;;;;4249748;27;20077;-66
2021/04/08 11:09:24;;;;;;;12.00;3.03;;;18.50;33.40;;;;;;4248598;27;20047;-66
2021/04/08 11:11:31;;;;;;;18.88;5.53;;;19.80;34.90;;;;;;4228944;27;20078;-67
2021/04/08 11:13:55;;;;;;;9.13;3.55;;;19.20;33.20;;;;;;4250594;27;20062;-67
2021/04/08 11:16:04;;;;;;;8.80;2.78;;;20.20;34.30;;;;;;4255642;27;20043;-67
2021/04/08 11:18:14;;;;;;;11.55;3.85;;;20.90;33.30;;;;;;4258173;27;20374;-65
2021/04/08 11:20:36;;;;;;;7.65;3.75;;;20.70;33.10;;;;;;4240157;27;20071;-69
2021/04/08 11:22:46;;;;;;;11.32;3.63;;;20.40;32.60;;;;;;4241347;27;20075;-66
2021/04/08 11:24:51;;;;;;;8.95;4.10;;;21.00;32.80;;;;;;4238104;27;20044;-67
2021/04/08 11:27:13;;;;;;;10.75;3.28;;;21.10;32.40;;;;;;4255643;27;20054;-68
2021/04/08 11:29:26;;;;;;;9.50;2.92;;;21.30;32.60;;;;;;4258541;27;20073;-66
2021/04/08 11:31:41;;;;;;;8.88;3.25;;;21.10;32.60;;;;;;4259982;27;20194;-63
2021/04/08 11:33:55;;;;;;;14.73;4.30;;;21.50;31.80;;;;;;4255567;27;20058;-64
2021/04/08 11:36:19;;;;;;;9.07;3.53;;;21.00;31.70;;;;;;4251020;27;20086;-64
2021/04/08 11:38:24;;;;;;;7.80;3.55;;;21.60;31.50;;;;;;4248381;27;20516;-63
2021/04/08 11:40:31;;;;;;;14.40;4.63;;;21.70;31.10;;;;;;4241282;27;20039;-66
2021/04/08 11:42:49;;;;;;;8.73;3.45;;;20.90;29.70;;;;;;4211660;27;20074;-66
2021/04/08 11:45:18;;;;;;;11.80;3.35;;;20.70;33.30;;;;;;4252102;27;20069;-66
2021/04/08 11:47:25;;;;;;;12.95;4.55;;;21.00;32.00;;;;;;4253163;27;20043;-70
2021/04/08 11:49:28;;;;;;;9.80;3.50;;;21.40;31.60;;;;;;4250054;27;20070;-73
2021/04/08 11:51:34;;;;;;;18.42;4.65;;;21.40;31.40;;;;;;4249255;27;20043;-71
2021/04/08 11:53:42;;;;;;;10.65;5.45;;;20.80;31.10;;;;;;4253244;27;20318;-72
2021/04/08 11:55:51;;;;;;;12.45;5.20;;;19.70;30.20;;;;;;4228193;27;20150;-65
2021/04/08 11:58:04;;;;;;;12.07;3.85;;;19.80;31.80;;;;;;4249918;27;20055;-65
2021/04/08 12:00:13;;;;;;;;;;;20.10;32.50;;;;;;4253977;27;20048;-68
2021/04/08 12:02:31;;;;;;;12.95;4.72;;;20.60;32.20;;;;;;4250255;27;19967;-66
2021/04/08 12:04:49;;;;;;;25.17;5.72;;;20.80;30.60;;;;;;4223485;27;20518;-66
2021/04/08 12:06:58;;;;;;;17.25;4.50;;;20.10;31.50;;;;;;4215739;28;20047;-65
2021/04/08 12:09:10;;;;;;;11.18;3.75;;;20.50;30.80;;;;;;4217208;28;20127;-65
2021/04/08 12:11:20;;;;;;;17.83;4.32;;;20.40;32.10;;;;;;4215946;27;20154;-65
2021/04/08 12:13:27;;;;;;;9.82;4.43;;;20.30;31.00;;;;;;4233607;27;21188;-66
2021/04/08 12:15:38;;;;;;;9.02;4.13;;;19.90;30.70;;;;;;4234632;27;20047;-65
2021/04/08 12:17:54;;;;;;;12.23;3.13;;;19.60;33.30;;;;;;4216760;28;20056;-65
2021/04/08 12:20:19;;;;;;;8.45;3.58;;;20.00;33.60;;;;;;4228635;27;20058;-65
2021/04/08 12:22:41;;;;;;;9.18;3.15;;;20.00;32.40;;;;;;4231336;27;20123;-65
2021/04/08 12:25:13;;;;;;;13.27;3.90;;;20.30;33.20;;;;;;4232127;27;21227;-65
2021/04/08 12:27:24;;;;;;;10.13;4.50;;;20.30;32.90;;;;;;4236421;27;21275;-65
2021/04/08 12:29:41;;;;;;;8.45;2.80;;;20.00;32.10;;;;;;4236897;27;20096;-65
2021/04/08 12:31:49;;;;;;;10.35;3.22;;;20.10;32.00;;;;;;4231478;27;20401;-64
2021/04/08 12:34:12;;;;;;;11.57;2.83;;;19.90;32.80;;;;;;4237368;27;20057;-65
2021/04/08 12:36:24;;;;;;;9.23;4.18;;;20.10;32.90;;;;;;4223168;27;20119;-65
2021/04/08 12:38:34;;;;;;;11.80;4.22;;;20.10;32.40;;;;;;4237382;27;20072;-66
2021/04/08 12:40:43;;;;;;;9.23;3.17;;;20.50;32.70;;;;;;4235266;27;20046;-66
2021/04/08 12:43:06;;;;;;;11.50;3.55;;;20.60;32.70;;;;;;4198170;27;20053;-65
2021/04/08 12:45:14;;;;;;;9.57;3.20;;;20.40;32.10;;;;;;4212757;28;20106;-66
2021/04/08 12:47:26;;;;;;;15.27;4.57;;;20.50;32.50;;;;;;4211360;28;20051;-66
2021/04/08 12:49:44;;;;;;;9.10;3.83;;;20.60;32.10;;;;;;4237905;27;20050;-66
2021/04/08 12:51:52;;;;;;;11.30;3.35;;;20.50;31.80;;;;;;4218643;27;20109;-65
2021/04/08 12:54:06;;;;;;;9.23;2.40;;;20.70;32.30;;;;;;4237808;27;20535;-66
2021/04/08 12:56:18;;;;;;;10.02;3.17;;;21.00;32.20;;;;;;4240707;27;20145;-66
2021/04/08 12:58:29;;;;;;;11.40;5.07;;;21.30;30.90;;;;;;4221721;27;20105;-65
2021/04/08 13:00:40;;;;;;;8.90;3.72;;;20.30;29.90;;;;;;4240367;27;20066;-63
2021/04/08 13:02:55;;;;;;;10.63;3.20;;;20.10;33.20;;;;;;4238074;27;20055;-65
2021/04/08 13:05:00;;;;;;;6.70;2.53;;;20.40;32.60;;;;;;4239153;27;20062;-65
2021/04/08 13:07:09;;;;;;;6.95;3.00;;;20.60;33.30;;;;;;4240949;27;20067;-63
2021/04/08 13:09:25;;;;;;;9.57;2.75;;;20.90;32.90;;;;;;4220467;27;20056;-66
2021/04/08 13:11:42;;;;;;;12.55;3.00;;;21.40;32.70;;;;;;4214683;27;20516;-63
2021/04/08 13:13:58;;;;;;;7.35;2.50;;;20.90;32.60;;;;;;4215079;28;20435;-66
2021/04/08 13:16:06;;;;;;;5.15;2.50;;;20.90;33.40;;;;;;4229066;27;20055;-63
2021/04/08 13:18:12;;;;;;;7.18;2.80;;;21.10;33.20;;;;;;4228649;27;20051;-65
2021/04/08 13:20:20;;;;;;;8.00;2.10;;;21.20;32.90;;;;;;4213729;28;20056;-66
2021/04/08 13:22:26;;;;;;;10.88;4.03;;;21.20;33.00;;;;;;4230568;27;20062;-63
2021/04/08 13:24:36;;;;;;;9.45;3.75;;;21.30;32.10;;;;;;4229583;27;20113;-65
2021/04/08 13:26:43;;;;;;;4.70;2.13;;;21.50;31.00;;;;;;4228665;27;20059;-63
2021/04/08 13:29:06;;;;;;;9.13;2.65;;;21.50;33.10;;;;;;4231861;27;20399;-64
2021/04/08 13:31:19;;;;;;;6.63;2.38;;;21.20;30.50;;;;;;4229872;27;20056;-63
2021/04/08 13:33:31;;;;;;;13.13;3.65;;;21.70;32.40;;;;;;4212954;27;20052;-63
2021/04/08 13:35:41;;;;;;;4.68;2.35;;;21.30;29.10;;;;;;4232091;27;20052;-64
2021/04/08 13:37:51;;;;;;;13.55;4.07;;;21.70;32.90;;;;;;4230380;27;20492;-64
2021/04/08 13:40:03;;;;;;;8.20;2.38;;;21.20;29.10;;;;;;4230099;27;20083;-63
2021/04/08 13:42:23;;;;;;;9.05;2.00;;;21.20;32.60;;;;;;4238233;27;20054;-63
2021/04/08 13:44:25;;;;;;;10.60;2.13;;;21.20;33.80;;;;;;4231491;27;20100;-65
2021/04/08 13:46:28;;;;;;;9.40;2.60;;;21.20;33.20;;;;;;4237678;27;20055;-65
2021/04/08 13:48:30;;;;;;;6.25;1.85;;;21.80;33.30;;;;;;4242029;27;20494;-64
2021/04/08 13:50:32;;;;;;;5.78;2.28;;;22.40;32.80;;;;;;4239046;27;20673;-64
2021/04/08 13:52:35;;;;;;;8.98;2.15;;;22.60;31.70;;;;;;4229811;27;20047;-67
2021/04/08 13:54:37;;;;;;;5.63;2.08;;;22.90;31.20;;;;;;4238014;27;20134;-65
2021/04/08 13:56:40;;;;;;;6.18;2.13;;;23.00;30.50;;;;;;4232795;27;20048;-64
2021/04/08 13:58:42;;;;;;;6.75;2.47;;;22.40;30.90;;;;;;4242775;27;20074;-66
2021/04/08 14:00:44;;;;;;;4.57;1.75;;;22.60;30.60;;;;;;4241803;27;20433;-64
2021/04/08 14:02:47;;;;;;;6.03;2.38;;;22.70;30.30;;;;;;4234421;27;20107;-64
2021/04/08 14:04:49;;;;;;;6.95;2.10;;;22.90;30.00;;;;;;4236308;27;20544;-64
2021/04/08 14:06:51;;;;;;;8.50;2.53;;;23.00;29.70;;;;;;4236259;27;20077;-64
2021/04/08 14:08:53;;;;;;;4.22;1.70;;;22.80;29.60;;;;;;4231768;27;20043;-64
2021/04/08 14:10:54;;;;;;;3.08;1.63;;;22.90;29.70;;;;;;4238593;27;20048;-65
2021/04/08 14:12:56;;;;;;;4.68;2.20;;;22.70;29.50;;;;;;4244643;27;20117;-64
2021/04/08 14:15:00;;;;;;;4.63;1.65;;;23.00;29.40;;;;;;4251855;27;20080;-64
2021/04/08 14:17:20;;;;;;;4.90;2.08;;;23.10;29.30;;;;;;4238611;27;20082;-64
2021/04/08 14:19:23;;;;;;;6.78;2.42;;;23.40;29.10;;;;;;4234306;27;20127;-64
2021/04/08 14:21:27;;;;;;;6.32;2.22;;;23.10;28.50;;;;;;4235407;27;20079;-63
2021/04/08 14:23:29;;;;;;;6.28;2.15;;;23.20;29.00;;;;;;4227397;27;20051;-64
2021/04/08 14:25:31;;;;;;;4.40;1.85;;;23.40;28.90;;;;;;4229936;27;20776;-64
2021/04/08 14:27:32;;;;;;;5.82;2.50;;;23.50;28.80;;;;;;4245117;27;20112;-68
2021/04/08 14:29:34;;;;;;;5.38;2.20;;;23.40;28.70;;;;;;4236433;27;20453;-66
2021/04/08 14:31:37;;;;;;;6.97;2.15;;;23.60;28.70;;;;;;4250247;27;20449;-66
2021/04/08 14:33:38;;;;;;;11.48;2.33;;;23.30;28.70;;;;;;4247093;27;20043;-64
2021/04/08 14:35:42;;;;;;;4.13;2.05;;;23.50;28.70;;;;;;4233575;27;20115;-66
2021/04/08 14:37:44;;;;;;;4.97;1.67;;;23.30;28.60;;;;;;4234640;27;20039;-63
2021/04/08 14:39:45;;;;;;;8.60;1.80;;;23.60;28.60;;;;;;4232782;27;20112;-66
2021/04/08 14:41:47;;;;;;;5.60;1.85;;;23.70;28.50;;;;;;4239721;27;20094;-65
2021/04/08 14:43:49;;;;;;;5.53;1.90;;;23.90;28.30;;;;;;4235337;27;20059;-67
2021/04/08 14:46:09;;;;;;;5.47;1.77;;;23.90;28.30;;;;;;4233814;27;20062;-63
2021/04/08 14:48:10;;;;;;;9.27;2.10;;;23.60;28.50;;;;;;4239942;27;20081;-65
2021/04/08 14:50:16;;;;;;;6.10;1.92;;;23.40;28.40;;;;;;4240173;28;20043;-66
2021/04/08 14:52:19;;;;;;;8.27;2.45;;;23.40;28.20;;;;;;4227900;28;20052;-68
2021/04/08 14:54:20;;;;;;;5.25;1.88;;;23.40;28.30;;;;;;4228961;28;20066;-69
2021/04/08 14:56:22;;;;;;;6.03;1.90;;;23.50;28.60;;;;;;4229142;28;20108;-68
2021/04/08 14:58:24;;;;;;;12.93;2.20;;;23.40;28.70;;;;;;4230227;28;20043;-69
2021/04/08 15:00:26;;;;;;;20.60;2.80;;;23.60;28.60;;;;;;4233896;28;20051;-71
2021/04/08 15:02:28;;;;;;;9.05;2.10;;;23.50;28.50;;;;;;4224832;28;20453;-68
2021/04/08 15:04:30;;;;;;;7.47;1.80;;;23.60;28.50;;;;;;4234905;28;20480;-69
2021/04/08 15:06:31;;;;;;;22.77;2.33;;;23.80;28.40;;;;;;4237161;28;20141;-69
2021/04/08 15:08:52;;;;;;;10.57;2.20;;;23.70;28.20;;;;;;4232891;28;20096;-72
2021/04/08 15:10:54;;;;;;;6.53;2.28;;;23.90;28.20;;;;;;4215002;28;20133;-68
2021/04/08 15:12:55;;;;;;;8.93;2.30;;;23.70;28.10;;;;;;4227591;28;20048;-69
2021/04/08 15:14:57;;;;;;;6.78;2.30;;;23.80;28.10;;;;;;4228297;28;20108;-69
2021/04/08 15:16:59;;;;;;;6.55;2.30;;;24.00;28.00;;;;;;4238765;28;20054;-70
2021/04/08 15:19:01;;;;;;;7.25;2.15;;;24.00;27.80;;;;;;4221323;28;20043;-68
2021/04/08 15:21:08;;;;;;;5.38;2.13;;;24.00;27.90;;;;;;4230743;28;20074;-66
2021/04/08 15:23:12;;;;;;;7.97;1.92;;;23.90;27.90;;;;;;4223077;28;20050;-65
2021/04/08 15:25:34;;;;;;;6.05;1.77;;;23.80;28.00;;;;;;4231291;28;20108;-68
2021/04/08 15:27:44;;;;;;;6.22;2.17;;;23.80;28.20;;;;;;4229896;28;20054;-66
2021/04/08 15:29:49;;;;;;;5.70;2.10;;;23.90;28.40;;;;;;4228115;28;20064;-67
2021/04/08 15:31:56;;;;;;;8.32;1.98;;;23.80;28.70;;;;;;4230273;28;20043;-69
2021/04/08 15:34:17;;;;;;;6.22;2.38;;;24.00;28.80;;;;;;4212706;28;20137;-64
2021/04/08 15:36:22;;;;;;;13.35;2.03;;;23.90;28.70;;;;;;4208344;28;20048;-66
2021/04/08 15:38:32;;;;;;;8.55;2.15;;;23.70;28.70;;;;;;4230892;28;20080;-66
2021/04/08 15:40:47;;;;;;;7.35;2.65;;;23.60;28.70;;;;;;4215121;27;20083;-65
2021/04/08 15:42:54;;;;;;;8.98;2.42;;;23.60;28.90;;;;;;4234728;27;20047;-65
2021/04/08 15:45:01;;;;;;;10.77;2.55;;;23.60;28.90;;;;;;4217041;27;20592;-66
2021/04/08 15:47:12;;;;;;;5.97;1.58;;;23.70;28.60;;;;;;4216096;27;20040;-65
2021/04/08 15:49:22;;;;;;;7.00;1.80;;;23.70;28.80;;;;;;4213901;27;20059;-66
2021/04/08 15:51:33;;;;;;;8.10;1.98;;;23.70;28.80;;;;;;4198725;28;20048;-67
2021/04/08 15:53:39;;;;;;;8.80;2.10;;;23.90;28.60;;;;;;4227558;27;20112;-67
2021/04/08 15:55:54;;;;;;;8.95;2.00;;;24.00;28.40;;;;;;4211690;27;20120;-67
2021/04/08 15:58:03;;;;;;;7.75;1.80;;;23.90;28.30;;;;;;4229646;27;20778;-68
2021/04/08 16:00:24;;;;;;;10.43;2.05;;;23.90;28.30;;;;;;4213262;28;20047;-67
2021/04/08 16:02:32;;;;;;;9.60;2.30;;;23.80;28.50;;;;;;4231368;27;20429;-67
2021/04/08 16:04:37;;;;;;;12.13;2.92;;;23.70;27.80;;;;;;4229317;27;20066;-67
2021/04/08 16:06:48;;;;;;;17.45;3.55;;;23.30;27.60;;;;;;4230840;27;20040;-64
2021/04/08 16:08:55;;;;;;;6.22;2.50;;;22.70;28.50;;;;;;4197621;27;20056;-68
2021/04/08 16:11:08;;;;;;;15.82;3.03;;;22.60;27.90;;;;;;4212127;28;20536;-68
2021/04/08 16:13:14;;;;;;;13.23;4.38;;;21.40;28.00;;;;;;4211819;28;20070;-66
2021/04/08 16:15:25;;;;;;;12.13;2.70;;;20.50;28.30;;;;;;4232887;27;20063;-66
2021/04/08 16:17:35;;;;;;;14.05;2.90;;;19.90;29.80;;;;;;4231253;27;20084;-67
2021/04/08 16:19:51;;;;;;;10.95;5.38;;;19.10;29.60;;;;;;4237988;27;20051;-66
2021/04/08 16:21:59;;;;;;;8.20;2.63;;;18.40;29.90;;;;;;4226509;28;20043;-66
2021/04/08 16:24:11;;;;;;;17.75;3.50;;;18.80;31.30;;;;;;4200880;27;20132;-66
2021/04/08 16:26:28;;;;;;;10.93;2.40;;;18.90;30.00;;;;;;4232965;27;20083;-65
2021/04/08 16:28:39;;;;;;;11.65;3.30;;;19.50;31.60;;;;;;4230381;27;20631;-66
2021/04/08 16:30:44;;;;;;;7.78;3.22;;;19.00;30.40;;;;;;4239611;27;20054;-67
2021/04/08 16:32:52;;;;;;;22.02;3.45;;;18.70;29.80;;;;;;4207816;27;20044;-68
2021/04/08 16:34:58;;;;;;;12.60;2.35;;;18.50;30.50;;;;;;4221218;27;20481;-67
2021/04/08 16:37:09;;;;;;;18.23;3.92;;;18.80;31.50;;;;;;4233042;27;20051;-66
2021/04/08 16:39:21;;;;;;;9.05;2.50;;;18.70;31.40;;;;;;4240200;27;20359;-67
2021/04/08 16:41:36;;;;;;;14.95;2.40;;;18.70;32.00;;;;;;4232943;27;21264;-66
2021/04/08 16:44:01;;;;;;;17.73;2.58;;;19.10;33.00;;;;;;4234216;27;20047;-67
2021/04/08 16:46:06;;;;;;;15.35;2.70;;;18.60;31.30;;;;;;4217546;27;20326;-67
2021/04/08 16:48:13;;;;;;;12.55;2.30;;;18.30;32.70;;;;;;4218701;28;20062;-66
2021/04/08 16:50:18;;;;;;;17.77;2.55;;;17.90;32.00;;;;;;4237799;27;20047;-65
2021/04/08 16:52:26;;;;;;;18.00;3.22;;;18.00;32.60;;;;;;4220552;27;20060;-65
2021/04/08 16:54:37;;;;;;;11.90;3.15;;;17.80;32.50;;;;;;4248475;27;20055;-65
2021/04/08 16:56:42;;;;;;;12.43;2.50;;;18.10;31.30;;;;;;4220071;28;20040;-65
2021/04/08 16:58:46;;;;;;;8.27;2.38;;;18.20;32.60;;;;;;4233721;28;20062;-66
2021/04/08 17:01:05;;;;;;;21.55;3.35;;;17.40;31.20;;;;;;4236199;28;20047;-65
2021/04/08 17:03:23;;;;;;;11.70;2.47;;;17.10;32.40;;;;;;4232215;28;20044;-65
2021/04/08 17:05:44;;;;;;;7.55;2.45;;;17.00;33.70;;;;;;4229521;28;20039;-70
2021/04/08 17:07:54;;;;;;;5.03;2.42;;;17.50;33.70;;;;;;4223242;28;20047;-65
2021/04/08 17:10:02;;;;;;;9.43;3.65;;;17.60;32.20;;;;;;4206853;28;20052;-68
2021/04/08 17:12:27;;;;;;;6.65;2.33;;;17.10;32.90;;;;;;4226737;28;20039;-65
2021/04/08 17:14:31;;;;;;;18.02;2.72;;;16.90;33.90;;;;;;4212043;28;20048;-66
2021/04/08 17:16:33;;;;;;;18.70;2.85;;;17.50;33.90;;;;;;4212921;28;20117;-66
